Time;durP1;ratioP1;P1;durP2;ratioP2;P2;SDS_P1;SDS_P2;PMS_P1;PMS_P2;Temp;Humidity;BMP_temperature;BMP_pressure;BME280_temperature;BME280_humidity;BME280_pressure;Samples;Min_cycle;Max_cycle;Signal;HPM_P1;HPM_P2
2022/01/22 00:00:39;;;;;;;;;10.50;7.50;;;;;6.92;63.62;102967.31;5046036;28;45959;-78
2022/01/22 00:03:04;;;;;;;;;9.50;7.75;;;;;6.92;64.01;102970.78;5045357;28;45755;-80
2022/01/22 00:05:30;;;;;;;;;9.00;9.00;;;;;6.92;64.13;102964.69;5044273;28;45764;-78
2022/01/22 00:07:55;;;;;;;;;7.50;7.50;;;;;6.89;63.92;102967.38;5049366;28;45914;-82
2022/01/22 00:10:23;;;;;;;;;12.75;10.00;;;;;6.90;64.12;102969.97;5041438;28;45659;-79
2022/01/22 00:15:17;;;;;;;;;10.75;10.25;;;;;6.91;64.37;102969.06;5046294;28;45823;-79
2022/01/22 00:17:42;;;;;;;;;9.00;9.00;;;;;6.85;63.99;102957.91;5047908;28;45995;-78
2022/01/22 00:20:10;;;;;;;;;8.75;6.00;;;;;6.78;63.99;102946.72;5047542;28;46213;-79
2022/01/22 00:22:37;;;;;;;;;10.00;9.00;;;;;6.89;64.08;102956.97;5046551;28;45612;-78
2022/01/22 00:25:08;;;;;;;;;12.00;10.00;;;;;6.82;64.05;102947.53;5049205;28;47468;-80
2022/01/22 00:27:35;;;;;;;;;6.25;6.25;;;;;6.89;64.16;102963.03;5040810;28;46060;-77
2022/01/22 00:30:00;;;;;;;;;12.25;9.00;;;;;6.89;63.95;102950.00;5048786;28;45718;-79
2022/01/22 00:32:26;;;;;;;;;13.25;9.75;;;;;6.86;64.21;102955.25;5056742;28;45670;-79
2022/01/22 00:34:51;;;;;;;;;7.50;7.50;;;;;6.90;64.03;102951.72;5068707;27;47945;-77
2022/01/22 00:37:18;;;;;;;;;9.25;8.00;;;;;6.91;63.93;102942.16;5057363;28;45648;-79
2022/01/22 00:39:44;;;;;;;;;9.00;7.25;;;;;6.90;63.87;102937.84;5046789;28;45680;-80
2022/01/22 00:42:11;;;;;;;;;8.00;6.50;;;;;6.96;64.04;102932.50;5058945;28;45612;-80
2022/01/22 00:44:37;;;;;;;;;10.00;7.25;;;;;6.98;64.17;102943.75;5065776;28;47362;-78
2022/01/22 00:47:03;;;;;;;;;5.00;3.50;;;;;7.00;64.10;102931.56;5067313;28;47048;-77
2022/01/22 00:49:29;;;;;;;;;5.50;5.50;;;;;7.01;63.82;102934.16;5053877;28;45988;-77
2022/01/22 00:51:57;;;;;;;;;6.25;5.50;;;;;6.99;63.73;102940.25;5048787;28;45511;-78
2022/01/22 00:54:23;;;;;;;;;6.25;5.00;;;;;7.03;64.29;102942.78;5041046;28;46566;-79
2022/01/22 00:56:48;;;;;;;;;5.50;5.50;;;;;7.04;64.04;102941.03;5043913;28;47447;-80
2022/01/22 00:59:14;;;;;;;;;7.50;6.00;;;;;7.06;64.00;102944.47;5051518;28;45874;-75
2022/01/22 01:01:40;;;;;;;;;5.50;5.50;;;;;7.06;64.23;102940.13;5053533;28;45656;-78
2022/01/22 01:04:08;;;;;;;;;8.50;6.50;;;;;7.07;64.20;102946.19;5041253;28;47139;-80
2022/01/22 01:06:36;;;;;;;;;8.00;6.00;;;;;7.10;64.24;102949.59;5031585;28;46143;-80
2022/01/22 01:09:06;;;;;;;;;10.75;9.00;;;;;7.06;64.21;102939.28;5032872;28;45958;-80
2022/01/22 01:11:34;;;;;;;;;6.00;5.50;;;;;7.12;64.27;102949.59;5034489;28;45755;-80
2022/01/22 01:14:02;;;;;;;;;5.00;5.00;;;;;7.05;64.38;102927.97;5037991;28;47371;-81
2022/01/22 01:32:53;;;;;;;;;9.00;9.00;;;;;7.14;64.34;102933.00;5027979;28;45729;-80
2022/01/22 01:35:19;;;;;;;;;8.50;6.75;;;;;7.06;64.14;102928.84;5032755;28;46140;-80
2022/01/22 01:37:45;;;;;;;;;6.00;5.25;;;;;7.10;64.45;102920.94;5030163;28;47005;-78
2022/01/22 01:40:13;;;;;;;;;6.00;5.50;;;;;7.08;64.29;102920.09;5027098;28;45866;-79
2022/01/22 01:45:08;;;;;;;;;8.00;6.00;;;;;7.09;64.36;102933.97;5032542;28;47674;-79
2022/01/22 01:47:35;;;;;;;;;8.00;6.25;;;;;7.08;64.13;102929.66;5032090;28;47198;-78
2022/01/22 01:50:00;;;;;;;;;8.75;7.25;;;;;7.04;64.30;102920.19;5032687;28;45659;-79
2022/01/22 01:52:36;;;;;;;;;9.25;6.00;;;;;7.05;64.42;102921.91;5031685;28;45846;-78
2022/01/22 01:55:14;;;;;;;;;7.25;7.25;;;;;7.06;64.43;102927.09;5014458;28;45709;-80
2022/01/22 01:57:42;;;;;;;;;9.50;8.00;;;;;7.11;64.37;102929.59;5028901;28;46271;-81
2022/01/22 02:00:21;;;;;;;;;8.25;8.00;;;;;7.08;64.42;102929.66;5023701;28;45924;-80
2022/01/22 02:02:48;;;;;;;;;7.25;7.25;;;;;7.11;64.36;102930.47;5031663;28;45790;-80
2022/01/22 02:05:15;;;;;;;;;8.00;6.25;;;;;7.09;64.13;102928.78;5026978;28;46515;-81
2022/01/22 02:07:42;;;;;;;;;9.00;8.75;;;;;6.90;64.42;102902.22;5031202;28;46086;-81
2022/01/22 02:10:12;;;;;;;;;9.50;8.50;;;;;7.06;64.29;102924.50;5026003;28;46306;-81
2022/01/22 02:23:39;;;;;;;;;6.25;6.25;;;;;7.00;64.19;102918.53;5032520;28;45788;-81
2022/01/22 02:26:07;;;;;;;;;10.00;10.00;;;;;6.97;64.33;102909.00;5028694;28;47230;-80
2022/01/22 02:28:33;;;;;;;;;8.50;7.75;;;;;6.95;64.19;102904.72;5030861;28;45725;-79
2022/01/22 02:31:11;;;;;;;;;10.00;8.00;;;;;7.05;64.21;102909.75;5032887;28;45626;-81
2022/01/22 02:33:52;;;;;;;;;8.00;8.00;;;;;7.06;64.46;102919.28;5033516;28;45650;-78
2022/01/22 02:36:26;;;;;;;;;6.50;6.25;;;;;6.97;64.32;102905.53;5035012;28;46614;-79
2022/01/22 02:39:03;;;;;;;;;8.00;6.00;;;;;6.95;64.36;102908.19;5033201;28;45832;-79
2022/01/22 02:41:30;;;;;;;;;8.25;8.00;;;;;7.05;64.35;102917.56;5040435;28;46003;-79
2022/01/22 02:43:56;;;;;;;;;10.00;8.50;;;;;6.91;64.51;102896.09;5034627;28;45876;-79
2022/01/22 02:46:28;;;;;;;;;10.00;8.75;;;;;7.03;64.45;102916.72;5036591;28;45885;-81
2022/01/22 02:48:55;;;;;;;;;8.75;7.25;;;;;6.89;64.35;102882.25;5035875;28;46360;-80
2022/01/22 02:51:26;;;;;;;;;7.00;7.00;;;;;7.04;64.50;102912.38;5033724;28;45969;-80
2022/01/22 02:53:54;;;;;;;;;7.25;6.00;;;;;7.01;64.52;102899.41;5031376;28;45776;-80
2022/01/22 02:56:22;;;;;;;;;8.75;8.75;;;;;6.96;64.49;102896.03;5022682;28;46356;-79
2022/01/22 02:58:48;;;;;;;;;9.75;8.00;;;;;6.99;64.34;102890.75;5037798;28;47276;-79
2022/01/22 03:01:16;;;;;;;;;12.50;8.50;;;;;7.01;64.40;102897.66;5031406;28;45802;-80
2022/01/22 03:03:42;;;;;;;;;10.50;9.50;;;;;6.98;64.67;102897.72;5027290;28;45754;-80
2022/01/22 03:06:08;;;;;;;;;8.75;8.00;;;;;7.01;64.22;102905.47;5029451;28;45994;-79
2022/01/22 03:08:33;;;;;;;;;10.00;6.00;;;;;6.99;64.78;102898.56;5024338;28;46097;-80
2022/01/22 03:11:04;;;;;;;;;9.75;6.25;;;;;7.05;64.62;102901.06;5024824;28;45646;-79
2022/01/22 03:29:19;;;;;;;;;9.75;9.00;;;;;7.05;64.64;102904.53;5017556;28;46477;-79
2022/01/22 03:31:47;;;;;;;;;11.75;9.00;;;;;6.89;64.78;102870.97;5019879;28;45833;-79
2022/01/22 03:34:13;;;;;;;;;10.75;8.75;;;;;6.97;64.57;102889.91;5008964;28;45725;-78
2022/01/22 03:36:39;;;;;;;;;9.50;8.75;;;;;7.07;64.73;102913.16;5017142;28;46341;-76
2022/01/22 03:39:08;;;;;;;;;8.75;8.00;;;;;7.08;64.69;102903.59;5008571;28;45951;-79
2022/01/22 03:41:35;;;;;;;;;8.50;8.50;;;;;7.08;64.89;102906.19;5008282;28;45883;-78
2022/01/22 03:44:00;;;;;;;;;16.00;9.00;;;;;7.07;64.52;102912.31;5009937;28;45928;-78
2022/01/22 03:46:26;;;;;;;;;10.00;8.25;;;;;7.08;64.80;102919.22;5009137;28;45926;-81
2022/01/22 03:48:52;;;;;;;;;9.75;9.75;;;;;7.06;64.88;102914.06;5009320;28;46103;-78
2022/01/22 03:51:18;;;;;;;;;9.50;9.50;;;;;7.07;64.91;102917.53;5007211;28;47235;-79
2022/01/22 03:53:43;;;;;;;;;9.00;9.00;;;;;7.08;64.57;102911.41;5025046;28;46089;-79
2022/01/22 03:56:10;;;;;;;;;9.00;9.00;;;;;7.09;64.72;102919.22;5005275;28;47288;-79
2022/01/22 03:58:39;;;;;;;;;8.00;7.25;;;;;7.07;64.91;102913.16;5029008;28;46100;-78
2022/01/22 04:04:11;;;;;;;;;10.50;9.50;;;;;7.10;64.76;102912.25;4968584;28;45838;-80
2022/01/22 04:09:09;;;;;;;;;9.75;9.00;;;;;7.10;64.90;102918.31;5021558;28;46147;-77
2022/01/22 04:11:41;;;;;;;;;13.50;10.50;;;;;7.09;64.92;102913.13;5022577;28;45685;-80
2022/01/22 04:14:14;;;;;;;;;10.75;8.75;;;;;7.06;65.20;102916.66;5014403;28;45911;-78
2022/01/22 04:16:47;;;;;;;;;9.75;8.50;;;;;7.03;64.80;102901.06;5021142;28;46391;-79
2022/01/22 04:24:50;;;;;;;;;10.50;10.00;;;;;7.01;64.68;102889.84;5025459;28;46103;-79
2022/01/22 04:27:22;;;;;;;;;11.50;11.50;;;;;7.07;64.74;102905.34;5030855;28;46648;-79
2022/01/22 04:29:47;;;;;;;;;13.75;11.50;;;;;7.07;65.13;102912.31;5027223;28;46534;-79
2022/01/22 04:32:12;;;;;;;;;9.75;8.75;;;;;6.98;64.87;102889.88;5021968;28;45744;-77
2022/01/22 04:34:38;;;;;;;;;11.25;11.25;;;;;7.05;65.13;102908.88;5016949;28;46052;-76
2022/01/22 04:37:03;;;;;;;;;13.75;12.00;;;;;6.97;65.14;102892.50;5023030;28;46202;-82
2022/01/22 04:39:29;;;;;;;;;14.00;11.50;;;;;7.03;65.05;102903.69;5019996;28;46397;-83
2022/01/22 04:41:56;;;;;;;;;13.50;13.25;;;;;6.89;65.27;102881.41;5023855;28;45753;-79
2022/01/22 04:44:25;;;;;;;;;16.00;12.50;;;;;7.00;65.08;102895.06;5025621;28;45755;-80
2022/01/22 04:57:18;;;;;;;;;12.00;11.25;;;;;6.96;65.35;102903.84;5021250;28;46649;-81
2022/01/22 04:59:45;;;;;;;;;15.00;14.75;;;;;6.91;65.26;102901.31;5030763;28;45832;-86
2022/01/22 05:02:10;;;;;;;;;18.00;14.25;;;;;6.94;65.36;102901.25;5029449;28;45743;-79
2022/01/22 05:04:36;;;;;;;;;18.00;13.00;;;;;6.91;65.74;102897.88;5033680;28;45911;-78
2022/01/22 05:07:03;;;;;;;;;20.00;15.50;;;;;6.93;65.35;102896.06;5024860;28;45727;-80
2022/01/22 05:09:28;;;;;;;;;15.00;13.50;;;;;6.83;65.27;102891.94;5032049;28;46232;-79
2022/01/22 05:11:54;;;;;;;;;15.25;14.25;;;;;6.87;65.24;102891.84;5044473;28;45628;-78
2022/01/22 05:14:19;;;;;;;;;21.00;17.00;;;;;6.94;65.05;102901.25;5028837;28;45558;-78
2022/01/22 05:16:45;;;;;;;;;19.25;17.50;;;;;6.91;65.45;102896.09;5028847;28;46532;-76
2022/01/22 05:19:20;;;;;;;;;21.00;18.00;;;;;6.96;65.34;102909.06;5031146;28;47106;-77
2022/01/22 05:21:47;;;;;;;;;18.00;17.75;;;;;6.89;65.21;102891.81;5030001;28;46045;-77
2022/01/22 05:24:17;;;;;;;;;8.50;5.00;;;;;6.93;65.49;102914.31;5033757;28;45528;-77
2022/01/22 05:27:07;;;;;;;;;12.75;11.25;;;;;6.95;65.68;102903.00;5026753;28;47988;-78
2022/01/22 05:37:20;;;;;;;;;26.00;19.25;;;;;6.85;65.64;102903.19;5045560;28;46561;-79
2022/01/22 05:39:46;;;;;;;;;13.25;9.75;;;;;6.89;65.60;102910.91;5020437;28;46375;-78
2022/01/22 05:42:12;;;;;;;;;21.25;18.00;;;;;6.82;65.23;102900.63;5027883;28;47348;-80
2022/01/22 05:44:38;;;;;;;;;15.00;15.00;;;;;6.92;65.45;102913.44;5032805;28;45864;-78
2022/01/22 05:47:06;;;;;;;;;20.25;18.50;;;;;6.92;65.47;102913.44;5030593;28;47260;-80
2022/01/22 05:49:37;;;;;;;;;24.25;18.75;;;;;6.93;65.38;102909.09;5028021;28;46265;-79
2022/01/22 05:52:05;;;;;;;;;22.75;18.75;;;;;6.92;65.69;102905.63;5032364;28;45665;-80
2022/01/22 05:59:58;;;;;;;;;22.00;21.00;;;;;6.93;65.67;102914.31;5021449;28;46127;-79
2022/01/22 06:02:24;;;;;;;;;27.00;21.75;;;;;6.83;65.82;102911.03;5030250;28;45721;-79
2022/01/22 06:04:49;;;;;;;;;25.00;20.50;;;;;6.89;65.73;102923.09;5029107;28;45718;-77
2022/01/22 06:07:15;;;;;;;;;22.00;20.00;;;;;6.76;65.75;102901.59;5021802;28;47287;-79
2022/01/22 06:10:02;;;;;;;;;21.50;17.25;;;;;6.84;65.80;102911.88;5030544;28;46963;-77
2022/01/22 06:14:59;;;;;;;;;22.75;18.00;;;;;6.91;65.49;102945.59;5026342;28;45802;-76
2022/01/22 06:17:24;;;;;;;;;29.75;22.50;;;;;6.88;65.64;102935.25;5030430;28;47374;-79
2022/01/22 06:19:49;;;;;;;;;28.50;23.25;;;;;6.86;65.58;102930.94;5029187;28;46498;-78
2022/01/22 06:22:15;;;;;;;;;29.50;24.50;;;;;6.86;65.63;102926.59;5031996;28;46013;-79
2022/01/22 06:24:41;;;;;;;;;25.25;23.00;;;;;6.90;65.83;102925.66;5030956;28;46294;-80
2022/01/22 06:27:07;;;;;;;;;19.50;18.00;;;;;6.90;65.63;102933.50;5030654;28;48333;-78
2022/01/22 06:29:32;;;;;;;;;22.75;20.50;;;;;6.92;65.58;102936.03;5037969;28;47116;-77
2022/01/22 06:31:58;;;;;;;;;25.50;20.25;;;;;6.93;65.71;102932.56;5036558;28;47405;-79
2022/01/22 06:34:23;;;;;;;;;21.75;20.25;;;;;6.94;65.79;102931.66;5043991;28;45523;-78
2022/01/22 06:36:48;;;;;;;;;25.25;21.75;;;;;6.89;65.54;102925.69;5034248;28;46487;-79
2022/01/22 06:39:16;;;;;;;;;27.50;20.75;;;;;6.95;65.46;102917.75;5036304;28;46052;-80
2022/01/22 06:41:45;;;;;;;;;23.00;19.25;;;;;6.94;65.45;102926.47;5033067;28;45567;-79
2022/01/22 06:44:16;;;;;;;;;21.25;18.75;;;;;6.80;65.81;102911.09;5027801;28;45631;-79
2022/01/22 06:46:44;;;;;;;;;22.50;18.25;;;;;6.96;65.51;102929.91;5028136;28;46400;-79
2022/01/22 06:49:09;;;;;;;;;27.25;22.00;;;;;6.97;65.81;102937.66;5027566;28;46406;-81
2022/01/22 06:51:35;;;;;;;;;22.25;19.00;;;;;6.94;65.62;102924.72;5024816;28;46182;-80
2022/01/22 06:54:02;;;;;;;;;22.25;20.50;;;;;6.93;65.46;102919.53;5031556;28;45934;-79
2022/01/22 06:56:30;;;;;;;;;23.25;16.75;;;;;6.94;65.43;102922.13;5030127;28;47521;-78
2022/01/22 06:58:59;;;;;;;;;24.75;19.25;;;;;6.99;65.86;102933.31;5031904;28;47287;-79
2022/01/22 07:01:26;;;;;;;;;30.75;22.25;;;;;6.88;65.53;102932.63;5025868;28;46148;-77
2022/01/22 07:03:53;;;;;;;;;22.75;21.00;;;;;6.97;65.40;102947.22;5020717;28;45661;-76
2022/01/22 07:06:19;;;;;;;;;28.25;25.00;;;;;7.00;65.37;102937.63;5030904;28;47392;-76
2022/01/22 07:08:45;;;;;;;;;24.25;19.75;;;;;7.00;65.67;102940.25;5031089;28;46193;-77
2022/01/22 07:11:10;;;;;;;;;25.50;21.00;;;;;6.99;65.76;102938.50;5029782;28;45873;-79
2022/01/22 07:13:37;;;;;;;;;29.25;24.00;;;;;6.97;65.61;102936.81;5029260;28;45579;-79
2022/01/22 07:16:03;;;;;;;;;22.25;16.00;;;;;6.99;65.28;102948.94;5031904;28;45795;-77
2022/01/22 07:18:31;;;;;;;;;22.00;19.50;;;;;6.95;65.68;102938.59;5039579;28;46312;-80
2022/01/22 07:20:56;;;;;;;;;25.50;23.75;;;;;6.91;65.40;102929.13;5030352;28;46009;-79
2022/01/22 07:23:56;;;;;;;;;32.00;22.50;;;;;6.99;65.78;102933.31;5047876;28;45931;-78
2022/01/22 07:26:17;;;;;;;;;21.75;19.25;;;;;6.80;65.68;102900.69;5036520;28;45717;-78
2022/01/22 07:28:43;;;;;;;;;21.25;20.50;;;;;7.01;65.51;102938.50;5023595;28;45930;-78
2022/01/22 07:31:10;;;;;;;;;25.00;21.00;;;;;7.04;65.63;102957.53;5029855;28;45604;-77
2022/01/22 07:33:36;;;;;;;;;24.00;21.75;;;;;7.08;65.61;102945.28;5039818;28;45730;-80
2022/01/22 07:36:05;;;;;;;;;24.50;20.50;;;;;7.07;65.47;102941.81;5034596;28;45697;-79
2022/01/22 07:38:31;;;;;;;;;21.00;19.50;;;;;7.11;65.83;102958.28;5032292;28;46207;-78
2022/01/22 07:40:56;;;;;;;;;19.25;16.75;;;;;7.06;65.55;102949.69;5035808;28;45818;-79
2022/01/22 07:43:22;;;;;;;;;30.00;22.25;;;;;7.09;65.69;102949.63;5038597;28;45581;-77
2022/01/22 07:45:47;;;;;;;;;27.00;21.25;;;;;7.05;65.57;102948.84;5032292;28;45771;-76
2022/01/22 07:48:13;;;;;;;;;23.00;18.75;;;;;7.09;65.38;102955.69;5026345;28;46273;-77
2022/01/22 07:50:38;;;;;;;;;16.00;16.00;;;;;7.05;65.47;102948.84;5032100;28;46481;-78
2022/01/22 07:53:03;;;;;;;;;28.00;21.25;;;;;6.98;65.33;102930.72;5031641;28;45637;-79
2022/01/22 07:55:29;;;;;;;;;26.50;21.50;;;;;7.01;65.46;102951.53;5032029;28;45711;-80
2022/01/22 07:57:55;;;;;;;;;24.75;21.00;;;;;7.05;65.54;102961.00;5028587;28;46266;-79
2022/01/22 08:00:20;;;;;;;;;21.75;20.75;;;;;7.05;65.39;102956.66;5033345;28;45960;-80
2022/01/22 08:02:46;;;;;;;;;24.50;21.50;;;;;7.09;65.39;102960.91;5030202;28;45840;-80
2022/01/22 08:05:12;;;;;;;;;21.25;17.75;;;;;7.12;65.71;102975.66;5033973;28;46373;-80
2022/01/22 08:07:40;;;;;;;;;25.00;24.00;;;;;6.92;65.75;102934.28;5031114;28;46880;-77
2022/01/22 08:10:10;;;;;;;;;27.50;22.00;;;;;6.96;65.32;102940.34;5034245;28;45854;-78
2022/01/22 08:12:37;;;;;;;;;18.75;17.75;;;;;7.14;65.85;102973.84;5029598;28;45722;-80
2022/01/22 08:15:07;;;;;;;;;23.25;19.25;;;;;7.14;65.53;102977.31;5026870;28;45913;-76
2022/01/22 08:17:33;;;;;;;;;23.75;19.00;;;;;7.03;65.81;102958.41;5033198;28;47441;-78
2022/01/22 08:19:58;;;;;;;;;23.00;20.50;;;;;7.13;65.49;102975.59;5028634;28;45804;-80
2022/01/22 08:22:24;;;;;;;;;26.50;22.00;;;;;7.07;65.40;102964.44;5034287;28;46017;-78
2022/01/22 08:24:53;;;;;;;;;23.00;18.75;;;;;7.11;65.69;102980.00;5033098;28;47470;-79
2022/01/22 08:27:33;;;;;;;;;26.50;20.00;;;;;7.09;65.19;102976.53;5034188;28;45541;-79
2022/01/22 08:29:59;;;;;;;;;24.75;21.00;;;;;7.12;65.69;102986.06;5020382;28;46116;-80
2022/01/22 08:37:51;;;;;;;;;21.25;18.25;;;;;7.14;65.47;102990.34;5026972;28;45756;-79
2022/01/22 08:40:17;;;;;;;;;21.50;18.25;;;;;7.15;65.67;102991.22;5030894;28;45639;-78
2022/01/22 08:42:44;;;;;;;;;28.25;22.25;;;;;7.16;65.63;102993.81;5033969;28;45959;-80
2022/01/22 08:45:10;;;;;;;;;26.00;20.25;;;;;7.18;65.46;102993.75;5033670;28;46272;-81
2022/01/22 08:47:36;;;;;;;;;30.25;23.25;;;;;7.14;65.59;102992.09;5033252;28;46090;-76
2022/01/22 08:50:02;;;;;;;;;23.25;20.00;;;;;7.18;65.75;102997.22;5048544;28;47258;-78
2022/01/22 08:52:31;;;;;;;;;28.00;25.75;;;;;7.22;65.68;103003.25;5030980;28;45929;-77
2022/01/22 08:54:57;;;;;;;;;22.75;20.75;;;;;7.23;65.35;103001.50;5041318;28;46443;-81
2022/01/22 08:57:22;;;;;;;;;22.25;19.00;;;;;7.22;65.49;103003.25;5020605;28;46866;-77
2022/01/22 08:59:48;;;;;;;;;23.75;20.25;;;;;7.24;65.11;103003.19;5033590;28;46413;-80
2022/01/22 09:02:15;;;;;;;;;26.00;22.75;;;;;7.06;65.29;102979.22;5033815;28;45607;-80
2022/01/22 09:04:41;;;;;;;;;27.00;21.25;;;;;7.22;65.47;103008.47;5026363;28;46456;-79
2022/01/22 09:07:07;;;;;;;;;22.00;19.00;;;;;7.23;65.32;103019.75;5033477;28;46184;-78
2022/01/22 09:09:35;;;;;;;;;23.00;20.50;;;;;7.15;65.37;103005.13;5028782;28;45884;-79
2022/01/22 09:12:00;;;;;;;;;24.50;20.00;;;;;7.18;65.52;103006.78;5029152;28;46117;-79
2022/01/22 09:14:26;;;;;;;;;21.25;18.75;;;;;7.21;65.42;103019.78;5032026;28;47259;-79
2022/01/22 09:16:52;;;;;;;;;21.75;20.00;;;;;7.21;65.47;103013.69;5023743;28;46573;-79
2022/01/22 09:19:19;;;;;;;;;27.75;24.25;;;;;7.25;65.64;103021.44;5031893;28;46182;-78
2022/01/22 09:21:47;;;;;;;;;19.50;18.00;;;;;7.27;65.45;103021.41;5029349;28;45845;-78
2022/01/22 09:24:15;;;;;;;;;17.25;14.50;;;;;7.18;65.28;103009.38;5027235;28;46809;-79
2022/01/22 09:26:42;;;;;;;;;22.50;19.75;;;;;7.16;65.48;103005.97;5029815;28;46369;-78
2022/01/22 09:29:08;;;;;;;;;23.00;21.00;;;;;7.29;65.33;103033.50;5025922;28;45749;-79
2022/01/22 09:31:35;;;;;;;;;21.50;19.50;;;;;7.12;65.21;103004.31;5031253;28;45954;-78
2022/01/22 09:34:02;;;;;;;;;25.00;19.25;;;;;7.27;65.23;103024.03;5030450;28;48237;-79
2022/01/22 09:36:29;;;;;;;;;26.75;22.50;;;;;7.28;65.11;103031.81;5030279;28;46273;-79
2022/01/22 09:38:55;;;;;;;;;27.25;24.50;;;;;7.31;65.16;103046.53;5025350;28;46181;-79
2022/01/22 09:41:23;;;;;;;;;27.25;24.00;;;;;7.24;65.28;103027.53;5017280;28;46172;-81
2022/01/22 09:43:49;;;;;;;;;22.50;20.75;;;;;7.33;65.21;103050.84;5025507;28;47575;-77
2022/01/22 09:46:15;;;;;;;;;28.00;25.00;;;;;7.34;65.34;103041.28;5034079;28;47729;-78
2022/01/22 09:48:45;;;;;;;;;23.00;21.75;;;;;7.31;65.22;103036.09;5026505;28;45823;-80
2022/01/22 09:51:12;;;;;;;;;32.25;26.75;;;;;7.34;65.27;103038.69;5027446;28;45989;-80
2022/01/22 09:53:39;;;;;;;;;23.75;21.25;;;;;7.29;65.38;103024.88;5023142;28;47354;-82
2022/01/22 09:56:05;;;;;;;;;23.75;20.25;;;;;7.40;65.12;103033.31;5022324;28;46220;-77
2022/01/22 09:58:30;;;;;;;;;27.00;22.25;;;;;7.44;65.20;103042.81;5023587;28;45812;-81
2022/01/22 10:01:21;;;;;;;;;23.00;19.00;;;;;7.46;65.16;103044.50;5028096;28;46693;-81
2022/01/22 10:03:47;;;;;;;;;27.50;24.25;;;;;7.49;65.21;103046.19;5027655;28;47382;-79
2022/01/22 10:06:19;;;;;;;;;27.75;22.75;;;;;7.49;64.94;103043.59;5031454;28;46935;-78
2022/01/22 10:08:45;;;;;;;;;28.25;22.25;;;;;7.51;65.22;103045.28;5030431;28;45670;-80
2022/01/22 10:11:19;;;;;;;;;20.50;19.50;;;;;7.51;64.89;103053.09;5031451;28;45718;-76
2022/01/22 10:13:50;;;;;;;;;28.25;22.75;;;;;7.48;65.18;103040.13;5032648;28;45800;-79
2022/01/22 10:16:23;;;;;;;;;24.25;20.75;;;;;7.58;65.02;103051.22;5032739;28;46186;-77
2022/01/22 10:19:08;;;;;;;;;26.50;23.25;;;;;7.58;64.82;103046.88;5031377;28;45672;-77
2022/01/22 10:21:34;;;;;;;;;23.50;19.50;;;;;7.63;64.84;103056.34;5041929;28;46034;-77
2022/01/22 10:24:30;;;;;;;;;23.25;22.00;;;;;7.64;64.78;103050.25;5031150;28;46327;-81
2022/01/22 10:27:38;;;;;;;;;22.50;22.25;;;;;7.66;64.70;103059.78;5027852;28;46429;-76
2022/01/22 10:30:10;;;;;;;;;25.00;18.75;;;;;7.67;64.78;103048.44;5027434;28;45989;-78
2022/01/22 10:35:10;;;;;;;;;24.75;19.00;;;;;7.61;64.84;103039.91;5025305;28;45991;-80
2022/01/22 10:37:36;;;;;;;;;27.25;22.75;;;;;7.69;64.48;103054.50;5029078;28;46211;-78
2022/01/22 10:40:19;;;;;;;;;28.50;23.00;;;;;7.41;64.57;103012.44;5029330;28;45895;-76
2022/01/22 10:42:45;;;;;;;;;26.75;20.25;;;;;7.72;64.44;103062.25;5030491;28;45928;-77
2022/01/22 10:45:18;;;;;;;;;24.00;19.25;;;;;7.74;64.40;103063.09;5025540;28;46674;-76
2022/01/22 10:47:44;;;;;;;;;25.50;19.00;;;;;7.74;64.51;103059.63;5023096;28;46222;-79
2022/01/22 10:50:17;;;;;;;;;23.75;20.00;;;;;7.75;64.31;103063.94;5029102;28;46028;-76
2022/01/22 10:52:48;;;;;;;;;26.50;22.25;;;;;7.77;64.40;103057.81;5029869;28;46448;-77
2022/01/22 10:55:14;;;;;;;;;26.75;22.50;;;;;7.60;64.42;103018.16;5028664;28;45828;-75
2022/01/22 10:57:39;;;;;;;;;25.00;21.50;;;;;7.61;64.38;103013.81;5022283;28;46581;-76
2022/01/22 11:00:18;;;;;;;;;33.25;25.00;;;;;7.55;64.57;103006.97;5030437;28;45788;-77
2022/01/22 11:02:44;;;;;;;;;31.75;22.50;;;;;7.84;64.18;103055.94;5030182;28;45643;-76
2022/01/22 11:05:29;;;;;;;;;33.00;25.00;;;;;7.79;64.26;103031.69;5025479;28;46477;-79
2022/01/22 11:08:14;;;;;;;;;26.25;22.75;;;;;7.88;64.28;103045.38;5019995;28;46204;-76
2022/01/22 11:10:49;;;;;;;;;33.75;26.75;;;;;7.91;64.37;103044.47;5026838;28;45701;-81
2022/01/22 11:13:14;;;;;;;;;26.00;23.00;;;;;7.92;64.13;103041.00;5025140;28;46848;-80
2022/01/22 11:15:42;;;;;;;;;25.75;23.00;;;;;7.85;64.20;103028.94;5028125;28;46587;-77
2022/01/22 11:18:11;;;;;;;;;24.00;22.00;;;;;7.92;64.22;103043.59;5028974;28;46194;-79
2022/01/22 11:20:37;;;;;;;;;23.00;20.75;;;;;7.88;64.13;103037.56;5023493;28;45753;-76
2022/01/22 11:23:04;;;;;;;;;29.75;27.00;;;;;7.94;63.91;103042.66;5026552;28;45763;-76
2022/01/22 11:25:33;;;;;;;;;23.50;19.75;;;;;7.79;64.16;103013.41;5028314;28;45789;-78
2022/01/22 11:28:00;;;;;;;;;24.25;23.00;;;;;7.96;64.09;103042.63;5028391;28;46353;-81
2022/01/22 11:30:27;;;;;;;;;33.00;27.75;;;;;7.83;64.17;103020.28;5029321;28;45830;-79
2022/01/22 11:32:57;;;;;;;;;32.75;24.00;;;;;7.91;64.09;103014.03;5030844;28;45714;-78
2022/01/22 11:35:28;;;;;;;;;31.25;22.00;;;;;8.00;64.12;103026.00;5026743;28;46885;-79
2022/01/22 11:38:07;;;;;;;;;26.75;22.50;;;;;8.02;64.04;103024.25;5014942;28;46114;-78
2022/01/22 11:40:34;;;;;;;;;33.00;26.75;;;;;7.98;64.05;103015.63;5024131;28;45904;-79
2022/01/22 11:43:07;;;;;;;;;27.75;23.50;;;;;8.02;64.08;103016.41;5025201;28;45852;-80
2022/01/22 11:45:39;;;;;;;;;27.00;23.50;;;;;8.05;63.87;103015.47;5020837;28;47210;-81
2022/01/22 11:48:16;;;;;;;;;32.25;25.25;;;;;8.08;63.84;103016.28;5019194;28;46177;-82
2022/01/22 11:50:45;;;;;;;;;25.25;21.25;;;;;8.09;63.92;103019.75;5026219;28;45677;-79
2022/01/22 11:53:40;;;;;;;;;26.75;23.50;;;;;8.12;63.92;103009.22;5022855;28;46068;-80
2022/01/22 11:56:13;;;;;;;;;37.75;31.00;;;;;8.16;63.81;103013.47;4988396;28;46517;-83
2022/01/22 11:58:56;;;;;;;;;27.00;25.50;;;;;8.19;63.79;103014.28;4987441;28;46291;-80
2022/01/22 12:01:53;;;;;;;;;27.75;23.00;;;;;8.21;63.90;103015.09;4984092;28;45970;-80
2022/01/22 12:04:20;;;;;;;;;26.50;23.50;;;;;8.21;63.43;103020.31;4987142;28;46278;-77
2022/01/22 12:07:00;;;;;;;;;28.00;24.25;;;;;8.21;63.73;103007.25;5003496;28;47421;-79
2022/01/22 12:09:34;;;;;;;;;29.50;23.50;;;;;8.21;63.70;103012.47;5004440;28;47387;-76
2022/01/22 12:15:17;;;;;;;;;34.25;25.75;;;;;8.23;63.44;102991.56;4910605;28;45685;-76
2022/01/22 12:17:56;;;;;;;;;30.00;22.50;;;;;8.28;63.65;103000.16;4913318;28;46374;-74
2022/01/22 12:23:02;;;;;;;;;26.50;23.00;;;;;8.16;63.43;102967.34;4910401;28;45559;-79
2022/01/22 12:25:28;;;;;;;;;29.25;23.25;;;;;8.37;63.61;102998.22;4910924;28;45774;-78
2022/01/22 12:27:54;;;;;;;;;27.75;20.25;;;;;8.41;63.19;102994.66;4913363;28;46857;-78
2022/01/22 12:30:38;;;;;;;;;27.50;24.00;;;;;8.45;63.46;102990.19;4911710;28;46167;-79
2022/01/22 12:33:07;;;;;;;;;29.00;26.00;;;;;8.49;63.32;102980.53;4952072;28;46059;-79
2022/01/22 12:35:39;;;;;;;;;25.00;22.00;;;;;8.49;63.48;102984.00;4967593;28;46111;-83
2022/01/22 12:38:14;;;;;;;;;25.25;22.25;;;;;8.52;63.30;102985.69;4965030;28;45847;-79
2022/01/22 12:40:39;;;;;;;;;28.50;24.50;;;;;8.47;63.14;102977.97;4968755;28;48041;-78
2022/01/22 12:43:11;;;;;;;;;29.75;22.00;;;;;8.32;63.10;102941.75;4969985;28;46213;-83
2022/01/22 12:45:39;;;;;;;;;27.75;23.75;;;;;8.55;63.10;102969.94;4972108;28;45873;-81
2022/01/22 12:48:05;;;;;;;;;25.75;24.25;;;;;8.41;63.21;102939.81;4969875;28;46657;-78
2022/01/22 12:50:34;;;;;;;;;28.00;21.25;;;;;8.63;63.06;102966.25;4978894;28;45919;-76
2022/01/22 12:53:06;;;;;;;;;25.25;21.00;;;;;8.54;62.83;102947.31;5025985;28;47015;-79
2022/01/22 12:56:13;;;;;;;;;24.00;22.25;;;;;8.59;63.02;102948.06;5028181;28;45681;-81
2022/01/22 12:58:47;;;;;;;;;23.75;21.00;;;;;8.57;62.67;102935.06;5027196;28;46797;-79
2022/01/22 13:01:26;;;;;;;;;27.75;24.75;;;;;8.60;62.76;102948.03;5031118;28;46211;-80
2022/01/22 13:03:55;;;;;;;;;28.75;26.25;;;;;8.66;62.72;102960.94;5025200;28;45791;-80
2022/01/22 13:06:24;;;;;;;;;26.75;24.00;;;;;8.65;62.96;102958.34;5032366;28;45887;-82
2022/01/22 13:08:55;;;;;;;;;32.75;25.25;;;;;8.67;62.72;102960.03;5032676;28;45800;-80